createdAt,value
2018-05-25T00:00:32.200Z,99.90
2018-05-25T00:02:59.822Z,99.90
2018-05-25T00:05:27.833Z,99.90
2018-05-25T00:07:55.337Z,99.90
2018-05-25T00:10:22.852Z,99.90
2018-05-25T00:12:51.578Z,99.90
2018-05-25T00:15:19.141Z,99.90
2018-05-25T00:17:46.748Z,99.90
2018-05-25T00:20:14.280Z,99.90
2018-05-25T00:22:41.789Z,99.90
2018-05-25T00:25:10.085Z,99.90
2018-05-25T00:27:37.655Z,99.90
2018-05-25T00:30:05.171Z,99.90
2018-05-25T00:32:33.445Z,99.90
2018-05-25T00:35:00.965Z,99.90
2018-05-25T00:37:28.496Z,99.90
2018-05-25T00:39:55.986Z,99.90
2018-05-25T00:42:23.526Z,99.90
2018-05-25T00:44:51.027Z,99.90
2018-05-25T00:47:18.609Z,99.90
2018-05-25T00:49:46.162Z,99.90
2018-05-25T00:52:13.660Z,99.90
2018-05-25T00:54:41.272Z,99.90
2018-05-25T00:57:08.881Z,99.90
2018-05-25T00:59:36.373Z,99.90
2018-05-25T01:02:03.891Z,99.90
2018-05-25T01:04:31.459Z,99.90
2018-05-25T01:06:58.968Z,99.90
2018-05-25T01:09:26.562Z,99.90
2018-05-25T01:11:54.215Z,99.90
2018-05-25T01:14:21.737Z,99.90
2018-05-25T01:16:50.061Z,99.90
2018-05-25T01:19:17.569Z,99.90
2018-05-25T01:21:45.077Z,99.90
2018-05-25T01:24:12.608Z,99.90
2018-05-25T01:26:40.144Z,99.90
2018-05-25T01:29:07.746Z,99.90
2018-05-25T01:31:35.247Z,99.90
2018-05-25T01:34:02.776Z,99.90
2018-05-25T01:36:30.292Z,99.90
2018-05-25T01:38:57.864Z,99.90
2018-05-25T01:41:25.419Z,99.90
2018-05-25T01:43:52.911Z,99.90
2018-05-25T01:46:20.396Z,99.90
2018-05-25T01:48:48.737Z,99.90
2018-05-25T01:51:16.212Z,99.90
2018-05-25T01:53:43.726Z,99.90
2018-05-25T01:56:11.209Z,99.90
2018-05-25T01:58:38.722Z,99.90
2018-05-25T02:01:06.992Z,99.90
2018-05-25T02:03:35.285Z,99.90
2018-05-25T02:06:03.661Z,99.90
2018-05-25T02:08:31.985Z,99.90
2018-05-25T02:10:59.607Z,99.90
2018-05-25T02:13:27.105Z,99.90
2018-05-25T02:15:54.606Z,99.90
2018-05-25T02:18:22.888Z,99.90
2018-05-25T02:20:51.159Z,99.90
2018-05-25T02:23:19.445Z,99.90
2018-05-25T02:25:46.984Z,99.90
2018-05-25T02:28:15.333Z,99.90
2018-05-25T02:30:42.846Z,99.90
2018-05-25T02:33:10.349Z,99.90
2018-05-25T02:35:37.872Z,99.90
2018-05-25T02:38:05.390Z,99.90
2018-05-25T02:40:33.667Z,99.90
2018-05-25T02:43:02.166Z,99.90
2018-05-25T02:45:29.707Z,99.90
2018-05-25T02:47:57.991Z,99.90
2018-05-25T02:50:26.257Z,99.90
2018-05-25T02:52:54.550Z,99.90
2018-05-25T02:55:22.059Z,99.90
2018-05-25T02:57:49.784Z,99.90
2018-05-25T03:00:17.280Z,99.90
2018-05-25T03:02:44.798Z,99.90
2018-05-25T03:05:12.316Z,99.90
2018-05-25T03:07:39.852Z,99.90
2018-05-25T03:10:07.378Z,99.90
2018-05-25T03:12:34.912Z,99.90
2018-05-25T03:15:03.182Z,99.90
2018-05-25T03:17:31.452Z,99.90
2018-05-25T03:19:59.749Z,99.90
2018-05-25T03:22:27.329Z,99.90
2018-05-25T03:24:54.856Z,99.90
2018-05-25T03:27:23.188Z,99.90
2018-05-25T03:29:50.704Z,99.90
2018-05-25T03:32:18.212Z,99.90
2018-05-25T03:34:45.774Z,99.90
2018-05-25T03:37:13.325Z,99.90
2018-05-25T03:39:40.828Z,99.90
2018-05-25T03:42:09.123Z,99.90
2018-05-25T03:44:36.650Z,99.90
2018-05-25T03:47:04.961Z,99.90
2018-05-25T03:49:32.497Z,99.90
2018-05-25T03:52:00.774Z,99.90
2018-05-25T03:54:29.054Z,99.90
2018-05-25T03:56:56.582Z,99.90
2018-05-25T03:59:36.013Z,99.90
2018-05-25T04:02:03.563Z,99.90
2018-05-25T04:04:31.043Z,99.90
2018-05-25T04:06:59.321Z,99.90
2018-05-25T04:09:27.684Z,99.90
2018-05-25T04:11:55.188Z,99.90
2018-05-25T04:14:22.731Z,99.90
2018-05-25T04:16:50.250Z,99.90
2018-05-25T04:19:17.766Z,99.90
2018-05-25T04:21:45.260Z,99.90
2018-05-25T04:24:13.507Z,99.90
2018-05-25T04:26:41.060Z,99.90
2018-05-25T04:29:08.585Z,99.90
2018-05-25T04:31:36.877Z,99.90
2018-05-25T04:34:05.111Z,99.90
2018-05-25T04:36:33.609Z,99.90
2018-05-25T04:39:01.922Z,99.90
2018-05-25T04:41:29.455Z,99.90
2018-05-25T04:43:57.710Z,99.90
2018-05-25T04:46:25.217Z,99.90
2018-05-25T04:48:52.736Z,99.90
2018-05-25T04:51:20.990Z,99.90
2018-05-25T04:53:48.477Z,99.90
2018-05-25T04:56:16.733Z,99.90
2018-05-25T04:58:45.049Z,99.90
2018-05-25T05:01:13.421Z,99.90
2018-05-25T05:03:40.901Z,99.90
2018-05-25T05:06:08.447Z,99.90
2018-05-25T05:08:35.936Z,99.90
2018-05-25T05:11:03.421Z,99.90
2018-05-25T05:13:30.963Z,99.90
2018-05-25T05:15:58.454Z,99.90
2018-05-25T05:18:27.023Z,99.90
2018-05-25T05:20:55.282Z,99.90
2018-05-25T05:23:22.778Z,99.90
2018-05-25T05:25:50.306Z,99.90
2018-05-25T05:28:17.809Z,99.90
2018-05-25T05:30:45.317Z,99.90
2018-05-25T05:33:14.332Z,99.90
2018-05-25T05:35:42.619Z,99.90
2018-05-25T05:38:10.133Z,99.90
2018-05-25T05:40:37.673Z,99.90
2018-05-25T05:43:05.188Z,99.90
2018-05-25T05:45:33.473Z,99.90
2018-05-25T05:48:01.015Z,99.90
2018-05-25T05:50:29.259Z,99.90
2018-05-25T05:52:56.764Z,99.90
2018-05-25T05:55:24.257Z,99.90
2018-05-25T05:57:51.777Z,99.90
2018-05-25T06:00:19.275Z,99.90
2018-05-25T06:02:46.831Z,99.90
2018-05-25T06:05:14.454Z,99.90
2018-05-25T06:07:41.980Z,99.90
2018-05-25T06:10:09.525Z,99.90
2018-05-25T06:12:37.034Z,99.90
2018-05-25T06:15:04.649Z,99.90
2018-05-25T06:17:32.240Z,99.90
2018-05-25T06:19:59.720Z,99.90
2018-05-25T06:22:28.028Z,99.90
2018-05-25T06:24:55.550Z,99.90
2018-05-25T06:27:23.041Z,99.90
2018-05-25T06:29:50.606Z,99.90
2018-05-25T06:32:18.118Z,99.90
2018-05-25T06:34:45.702Z,99.90
2018-05-25T06:37:14.124Z,99.90
2018-05-25T06:39:41.729Z,99.90
2018-05-25T06:42:09.323Z,99.90
2018-05-25T06:44:36.842Z,99.90
2018-05-25T06:47:04.346Z,99.90
2018-05-25T06:49:31.879Z,99.90
2018-05-25T06:51:59.415Z,99.90
2018-05-25T06:54:26.933Z,99.90
2018-05-25T06:56:55.199Z,99.90
2018-05-25T06:59:22.728Z,99.90
2018-05-25T07:01:50.243Z,99.90
2018-05-25T07:14:40.792Z,99.90
2018-05-25T07:17:09.069Z,99.90
2018-05-25T07:19:37.351Z,99.90
2018-05-25T07:22:05.623Z,99.90
2018-05-25T07:24:33.868Z,99.90
2018-05-25T07:27:01.386Z,99.90
2018-05-25T07:29:28.912Z,99.90
2018-05-25T07:31:57.207Z,99.90
2018-05-25T07:34:24.731Z,99.90
2018-05-25T07:36:52.256Z,99.90
2018-05-25T07:39:19.793Z,99.90
2018-05-25T07:41:47.279Z,99.90
2018-05-25T07:44:14.820Z,99.90
2018-05-25T07:46:42.353Z,99.90
2018-05-25T07:49:09.876Z,99.90
2018-05-25T07:51:37.371Z,99.90
2018-05-25T07:54:04.849Z,99.90
2018-05-25T07:56:32.362Z,99.90
2018-05-25T07:59:00.674Z,99.90
2018-05-25T08:01:28.204Z,99.90
2018-05-25T08:03:56.471Z,99.90
2018-05-25T08:06:24.788Z,99.90
2018-05-25T08:08:53.048Z,99.90
2018-05-25T08:11:20.591Z,99.90
2018-05-25T08:13:48.847Z,99.90
2018-05-25T08:16:16.348Z,99.90
2018-05-25T08:18:43.885Z,99.90
2018-05-25T08:21:12.172Z,99.90
2018-05-25T08:23:39.711Z,99.90
2018-05-25T08:26:07.250Z,99.90
2018-05-25T08:28:34.859Z,99.90
2018-05-25T08:31:02.354Z,99.90
2018-05-25T08:33:29.862Z,99.90
2018-05-25T08:35:57.375Z,99.90
2018-05-25T08:38:24.917Z,99.90
2018-05-25T08:40:52.413Z,99.90
2018-05-25T08:43:20.738Z,99.90
2018-05-25T08:45:48.223Z,99.90
2018-05-25T08:48:15.749Z,99.90
2018-05-25T08:50:43.245Z,99.90
2018-05-25T08:53:10.779Z,99.90
2018-05-25T08:55:38.284Z,99.90
2018-05-25T08:58:06.576Z,99.90
2018-05-25T09:00:34.218Z,99.90
2018-05-25T09:03:02.475Z,99.90
2018-05-25T09:05:29.983Z,99.90
2018-05-25T09:07:57.520Z,99.90
2018-05-25T09:10:25.116Z,99.90
2018-05-25T09:12:52.647Z,99.90
2018-05-25T09:15:20.182Z,99.90
2018-05-25T09:17:48.556Z,99.90
2018-05-25T09:20:16.202Z,99.90
2018-05-25T09:22:43.704Z,99.90
2018-05-25T09:25:11.203Z,99.90
2018-05-25T09:27:38.738Z,99.90
2018-05-25T09:30:07.030Z,99.60
2018-05-25T09:32:34.542Z,99.60
2018-05-25T09:35:02.090Z,99.10
2018-05-25T09:37:30.507Z,97.90
2018-05-25T09:39:58.027Z,97.90
2018-05-25T09:42:26.292Z,95.40
2018-05-25T09:44:54.581Z,96.90
2018-05-25T09:47:22.131Z,96.60
2018-05-25T09:49:50.418Z,95.80
2018-05-25T09:52:17.929Z,95.80
2018-05-25T09:54:45.462Z,96.10
2018-05-25T09:57:12.954Z,94.50
2018-05-25T09:59:40.482Z,93.40
2018-05-25T10:02:07.980Z,94.30
2018-05-25T10:04:35.525Z,96.10
2018-05-25T10:07:03.029Z,95.60
2018-05-25T10:09:30.532Z,94.30
2018-05-25T10:11:58.038Z,95.70
2018-05-25T10:14:25.577Z,94.00
2018-05-25T10:16:53.088Z,92.10
2018-05-25T10:19:20.582Z,91.40
2018-05-25T10:21:48.070Z,91.00
2018-05-25T10:24:15.593Z,92.70
2018-05-25T10:26:43.131Z,87.60
2018-05-25T10:29:10.641Z,90.30
2018-05-25T10:31:38.140Z,92.50
2018-05-25T10:34:05.648Z,90.80
2018-05-25T10:36:34.657Z,87.10
2018-05-25T10:39:02.166Z,87.00
2018-05-25T10:41:30.389Z,88.20
2018-05-25T10:43:57.923Z,88.30
2018-05-25T10:46:25.458Z,79.40
2018-05-25T10:48:52.971Z,88.10
2018-05-25T10:51:20.534Z,87.30
2018-05-25T10:53:48.045Z,83.90
2018-05-25T10:56:15.632Z,81.90
2018-05-25T10:58:43.120Z,79.10
2018-05-25T11:01:10.636Z,73.10
2018-05-25T11:03:38.885Z,78.40
2018-05-25T11:06:06.374Z,78.20
2018-05-25T11:08:33.907Z,78.50
2018-05-25T11:11:01.429Z,77.60
2018-05-25T11:13:28.987Z,80.00
2018-05-25T11:15:56.491Z,77.40
2018-05-25T11:18:24.876Z,79.40
2018-05-25T11:20:53.135Z,70.50
2018-05-25T11:23:20.633Z,70.50
2018-05-25T11:25:48.117Z,73.60
2018-05-25T11:28:15.685Z,71.20
2018-05-25T11:30:43.172Z,73.90
2018-05-25T11:33:10.710Z,72.40
2018-05-25T11:35:38.280Z,67.20
2018-05-25T11:38:05.768Z,68.80
2018-05-25T11:40:33.299Z,67.00
2018-05-25T11:43:00.800Z,66.20
2018-05-25T11:45:28.310Z,65.60
2018-05-25T11:47:55.831Z,63.60
2018-05-25T11:50:23.337Z,65.00
2018-05-25T11:52:51.693Z,65.60
2018-05-25T11:55:19.192Z,65.50
2018-05-25T11:57:46.687Z,62.70
2018-05-25T12:00:14.219Z,64.70
2018-05-25T12:02:41.733Z,61.30
2018-05-25T12:05:09.298Z,65.30
2018-05-25T12:07:36.897Z,64.40
2018-05-25T12:10:04.391Z,65.50
2018-05-25T12:12:31.901Z,66.80
2018-05-25T12:14:59.412Z,70.50
2018-05-25T12:17:26.962Z,68.30
2018-05-25T12:19:54.532Z,68.10
2018-05-25T12:22:22.059Z,75.30
2018-05-25T12:24:49.599Z,68.10
2018-05-25T12:27:17.097Z,73.50
2018-05-25T12:29:44.638Z,68.60
2018-05-25T12:32:12.160Z,73.90
2018-05-25T12:34:40.448Z,66.70
2018-05-25T12:37:08.022Z,66.60
2018-05-25T12:39:35.548Z,70.40
2018-05-25T12:42:03.837Z,71.00
2018-05-25T12:44:31.496Z,70.80
2018-05-25T12:46:59.004Z,73.40
2018-05-25T12:49:27.330Z,74.50
2018-05-25T12:51:54.941Z,74.50
2018-05-25T12:54:22.510Z,71.30
2018-05-25T12:56:50.008Z,74.90
2018-05-25T12:59:18.263Z,70.80
2018-05-25T13:01:46.564Z,70.40
2018-05-25T13:04:14.101Z,70.30
2018-05-25T13:06:41.611Z,72.70
2018-05-25T13:09:09.919Z,70.80
2018-05-25T13:11:38.234Z,69.80
2018-05-25T13:14:05.733Z,69.70
2018-05-25T13:16:33.609Z,70.30
2018-05-25T13:19:01.104Z,65.00
2018-05-25T13:21:28.684Z,64.10
2018-05-25T13:23:56.184Z,66.10
2018-05-25T13:26:23.684Z,69.60
2018-05-25T13:28:51.226Z,66.60
2018-05-25T13:31:18.827Z,62.90
2018-05-25T13:33:47.053Z,64.60
2018-05-25T13:36:15.326Z,62.80
2018-05-25T13:38:43.592Z,65.90
2018-05-25T13:41:11.077Z,64.90
2018-05-25T13:43:38.734Z,63.60
2018-05-25T13:46:06.281Z,62.10
2018-05-25T13:48:34.564Z,63.90
2018-05-25T13:51:02.875Z,63.90
2018-05-25T13:53:30.385Z,63.80
2018-05-25T13:55:58.672Z,61.30
2018-05-25T13:58:26.946Z,62.20
2018-05-25T14:00:54.499Z,62.10
2018-05-25T14:03:22.023Z,65.10
2018-05-25T14:05:49.503Z,61.90
2018-05-25T14:08:17.029Z,61.40
2018-05-25T14:10:44.534Z,63.50
2018-05-25T14:13:12.828Z,62.70
2018-05-25T14:15:40.333Z,62.70
2018-05-25T14:18:07.860Z,62.10
2018-05-25T14:20:35.405Z,63.00
2018-05-25T14:23:02.899Z,64.70
2018-05-25T14:25:30.470Z,65.70
2018-05-25T14:27:57.963Z,63.60
2018-05-25T14:30:25.492Z,61.40
2018-05-25T14:32:52.999Z,62.70
2018-05-25T14:35:20.516Z,62.00
2018-05-25T14:37:48.818Z,62.90
2018-05-25T14:40:16.357Z,62.90
2018-05-25T14:42:44.607Z,64.40
2018-05-25T14:45:12.088Z,64.10
2018-05-25T14:47:40.375Z,62.30
2018-05-25T14:50:08.652Z,60.80
2018-05-25T14:52:36.966Z,63.30
2018-05-25T14:55:04.468Z,63.30
2018-05-25T14:57:32.049Z,63.90
2018-05-25T15:00:00.307Z,57.80
2018-05-25T15:02:27.800Z,57.70
2018-05-25T15:04:55.304Z,59.10
2018-05-25T15:07:22.822Z,59.60
2018-05-25T15:09:50.370Z,56.20
2018-05-25T15:12:17.903Z,56.90
2018-05-25T15:14:46.175Z,56.10
2018-05-25T15:17:14.571Z,57.00
2018-05-25T15:19:42.079Z,56.90
2018-05-25T15:22:09.590Z,57.00
2018-05-25T15:24:37.103Z,55.40
2018-05-25T15:27:04.611Z,51.50
2018-05-25T15:29:32.101Z,51.10
2018-05-25T15:31:59.707Z,52.60
2018-05-25T15:34:27.213Z,50.60
2018-05-25T15:36:54.710Z,52.70
2018-05-25T15:39:22.206Z,51.70
2018-05-25T15:41:49.707Z,51.60
2018-05-25T15:44:17.227Z,51.70
2018-05-25T15:46:44.701Z,50.50
2018-05-25T15:49:12.202Z,52.90
2018-05-25T15:51:40.452Z,57.00
2018-05-25T15:54:07.949Z,57.00
2018-05-25T15:56:36.220Z,54.90
2018-05-25T15:59:04.503Z,58.70
2018-05-25T16:01:32.011Z,58.60
2018-05-25T16:03:59.591Z,60.60
2018-05-25T16:06:27.156Z,61.20
2018-05-25T16:08:55.438Z,64.30
2018-05-25T16:11:23.693Z,64.90
2018-05-25T16:13:51.256Z,64.80
2018-05-25T16:16:18.773Z,67.90
2018-05-25T16:18:46.270Z,69.70
2018-05-25T16:21:13.748Z,69.50
2018-05-25T16:23:41.352Z,69.70
2018-05-25T16:26:09.028Z,70.90
2018-05-25T16:28:36.514Z,71.30
2018-05-25T16:31:04.829Z,71.80
2018-05-25T16:33:32.344Z,71.70
2018-05-25T16:35:59.868Z,73.60
2018-05-25T16:38:27.380Z,74.40
2018-05-25T16:40:54.900Z,70.00
2018-05-25T16:43:22.408Z,74.30
2018-05-25T16:45:49.895Z,75.10
2018-05-25T16:48:17.385Z,75.50
2018-05-25T16:50:44.913Z,74.60
2018-05-25T16:53:12.409Z,77.30
2018-05-25T16:55:40.714Z,78.90
2018-05-25T16:58:08.318Z,78.80
2018-05-25T17:00:35.867Z,78.70
2018-05-25T17:03:03.385Z,80.00
2018-05-25T17:05:30.873Z,81.00
2018-05-25T17:07:58.387Z,80.70
2018-05-25T17:10:26.650Z,82.00
2018-05-25T17:12:54.930Z,79.90
2018-05-25T17:15:23.189Z,81.10
2018-05-25T17:17:50.738Z,81.00
2018-05-25T17:20:18.402Z,79.00
2018-05-25T17:22:45.922Z,79.90
2018-05-25T17:25:13.417Z,78.30
2018-05-25T17:27:40.928Z,78.80
2018-05-25T17:30:08.447Z,81.00
2018-05-25T17:32:35.985Z,84.60
2018-05-25T17:35:03.532Z,84.10
2018-05-25T17:37:31.050Z,83.10
2018-05-25T17:39:58.629Z,85.20
2018-05-25T17:42:26.136Z,85.00
2018-05-25T17:44:53.680Z,85.80
2018-05-25T17:47:21.298Z,85.80
2018-05-25T17:49:48.831Z,84.40
2018-05-25T17:52:16.357Z,83.30
2018-05-25T17:54:43.863Z,85.20
2018-05-25T17:57:11.396Z,85.70
2018-05-25T17:59:39.702Z,86.10
2018-05-25T18:02:07.250Z,86.10
2018-05-25T18:04:34.781Z,86.40
2018-05-25T18:07:02.281Z,84.80
2018-05-25T18:09:29.794Z,87.60
2018-05-25T18:11:58.133Z,90.30
2018-05-25T18:14:25.740Z,90.50
2018-05-25T18:16:54.044Z,91.60
2018-05-25T18:19:21.564Z,91.60
2018-05-25T18:21:49.066Z,91.50
2018-05-25T18:24:16.600Z,92.30
2018-05-25T18:26:44.892Z,93.40
2018-05-25T18:29:12.403Z,93.40
2018-05-25T18:31:39.925Z,94.20
2018-05-25T18:34:07.447Z,95.10
2018-05-25T18:36:35.757Z,94.40
2018-05-25T18:39:03.258Z,94.40
2018-05-25T18:41:30.802Z,94.00
2018-05-25T18:43:58.311Z,94.90
2018-05-25T18:46:25.963Z,95.90
2018-05-25T18:48:53.503Z,95.00
2018-05-25T18:51:20.988Z,95.20
2018-05-25T18:54:00.488Z,95.90
2018-05-25T18:56:28.000Z,96.30
2018-05-25T18:58:55.508Z,96.50
2018-05-25T19:01:23.258Z,97.30
2018-05-25T19:03:50.775Z,97.60
2018-05-25T19:06:18.386Z,97.70
2018-05-25T19:08:45.908Z,98.40
2018-05-25T19:11:13.414Z,98.80
2018-05-25T19:13:41.686Z,99.90
2018-05-25T19:16:09.966Z,99.90
2018-05-25T19:18:38.254Z,99.90
2018-05-25T19:21:06.519Z,99.90
2018-05-25T19:23:34.034Z,99.90
2018-05-25T19:26:01.541Z,99.90
2018-05-25T19:28:29.064Z,99.90
2018-05-25T19:30:56.631Z,99.90
2018-05-25T19:33:24.125Z,99.90
2018-05-25T19:35:51.630Z,99.90
2018-05-25T19:38:19.140Z,99.90
2018-05-25T19:40:46.667Z,99.90
2018-05-25T19:43:14.179Z,99.90
2018-05-25T19:45:41.721Z,99.90
2018-05-25T19:48:09.234Z,99.90
2018-05-25T19:50:36.708Z,99.90
2018-05-25T19:53:04.999Z,99.90
2018-05-25T19:55:33.344Z,99.90
2018-05-25T19:58:00.890Z,99.90
2018-05-25T20:00:28.396Z,99.90
2018-05-25T20:02:56.682Z,99.90
2018-05-25T20:05:24.250Z,99.90
2018-05-25T20:07:51.753Z,99.90
2018-05-25T20:10:19.263Z,99.90
2018-05-25T20:12:46.760Z,99.90
2018-05-25T20:15:14.273Z,99.90
2018-05-25T20:17:41.867Z,99.90
2018-05-25T20:20:09.399Z,99.90
2018-05-25T20:22:36.928Z,99.90
2018-05-25T20:25:05.220Z,99.90
2018-05-25T20:27:32.734Z,99.90
2018-05-25T20:30:00.239Z,99.90
2018-05-25T20:32:27.752Z,99.90
2018-05-25T20:34:55.258Z,99.90
2018-05-25T20:37:22.853Z,99.90
2018-05-25T20:39:51.158Z,99.90
2018-05-25T20:42:18.704Z,99.90
2018-05-25T20:44:46.265Z,99.90
2018-05-25T20:47:13.895Z,99.90
2018-05-25T20:49:41.407Z,99.90
2018-05-25T20:52:09.731Z,99.90
2018-05-25T20:54:37.355Z,99.90
2018-05-25T20:57:04.861Z,99.90
2018-05-25T20:59:32.413Z,99.90
2018-05-25T21:01:59.963Z,99.90
2018-05-25T21:04:27.517Z,99.90
2018-05-25T21:06:55.022Z,99.90
2018-05-25T21:09:23.333Z,99.90
2018-05-25T21:11:50.864Z,99.90
2018-05-25T21:14:19.198Z,99.90
2018-05-25T21:16:46.724Z,99.90
2018-05-25T21:19:14.241Z,99.90
2018-05-25T21:21:41.760Z,99.90
2018-05-25T21:24:09.310Z,99.90
2018-05-25T21:26:37.533Z,99.90
2018-05-25T21:29:05.871Z,99.90
2018-05-25T21:31:33.405Z,99.90
2018-05-25T21:34:00.907Z,99.90
2018-05-25T21:36:29.193Z,99.90
2018-05-25T21:38:56.753Z,99.90
2018-05-25T21:41:24.257Z,99.90
2018-05-25T21:43:51.837Z,99.90
2018-05-25T21:46:19.364Z,99.90
2018-05-25T21:48:46.893Z,99.90
2018-05-25T21:51:14.408Z,99.90
2018-05-25T21:53:42.145Z,99.90
2018-05-25T21:56:09.650Z,99.90
2018-05-25T21:58:37.154Z,99.90
2018-05-25T22:01:05.483Z,99.90
2018-05-25T22:03:32.973Z,99.90
2018-05-25T22:06:00.472Z,99.90
2018-05-25T22:08:27.981Z,99.90
2018-05-25T22:10:55.621Z,99.90
2018-05-25T22:13:23.179Z,99.90
2018-05-25T22:15:50.791Z,99.90
2018-05-25T22:18:18.335Z,99.40
2018-05-25T22:20:45.883Z,99.70
2018-05-25T22:23:13.496Z,99.90
2018-05-25T22:25:41.011Z,98.90
2018-05-25T22:28:09.367Z,99.30
2018-05-25T22:30:36.925Z,99.30
2018-05-25T22:33:04.476Z,98.90
2018-05-25T22:35:31.986Z,98.00
2018-05-25T22:37:59.543Z,97.50
2018-05-25T22:40:27.082Z,99.70
2018-05-25T22:43:07.107Z,98.60
2018-05-25T22:45:46.605Z,98.50
2018-05-25T22:48:25.774Z,99.20
2018-05-25T22:51:05.253Z,97.90
2018-05-25T22:53:37.817Z,98.90
2018-05-25T22:56:06.077Z,99.00
2018-05-25T22:58:34.387Z,98.70
2018-05-25T23:01:02.627Z,99.50
2018-05-25T23:03:30.166Z,99.50
2018-05-25T23:05:57.664Z,99.90
2018-05-25T23:08:26.014Z,99.10
2018-05-25T23:10:53.533Z,99.00
2018-05-25T23:13:21.041Z,99.90
2018-05-25T23:15:49.297Z,99.90
2018-05-25T23:18:16.823Z,99.90
2018-05-25T23:20:44.319Z,99.90
2018-05-25T23:23:11.886Z,99.10
2018-05-25T23:25:39.358Z,99.90
2018-05-25T23:28:07.633Z,99.90
2018-05-25T23:30:35.892Z,99.90
2018-05-25T23:33:03.422Z,99.90
2018-05-25T23:35:30.932Z,99.90
2018-05-25T23:37:58.587Z,99.90
2018-05-25T23:40:27.007Z,99.90
2018-05-25T23:42:54.497Z,99.90
2018-05-25T23:45:22.033Z,99.90
2018-05-25T23:47:49.546Z,99.90
2018-05-25T23:50:17.067Z,99.90
2018-05-25T23:52:44.570Z,99.90
2018-05-25T23:55:12.083Z,99.90
2018-05-25T23:57:39.608Z,99.90
